Onde está Outeiro do Salto en Portugal?

Outeiro do Salto está situado na região Evora em Portugal!

Buscar o nome de uma cidade:

Outeiro Martinho, Outeiro da Marrada, Outeiro Pelador, Outer Goose Island, Outeiros de São Miguel

Aqui você vai encontrar a localização de Outeiro do Salto em um mapa.
Para ver como ele atualmente parece, abaixo estão algumas fotos da região, com webcams online.
Você também pode encontrar a distância para as principais cidades da região e de cidades do resto do Portugal.

Todos os lugares do mundo chamado .

new

Onde está Outeiro do Salto no mapa?


Webcams perto Outeiro do Salto

Sines Municipality: Praia de Sao Torpes.


Sines Municipality: Praia de Sao Torpes - Dia
Actual
Sines Municipality: Praia de Sao Torpes - Actual

Vasco Carão > South: Garrocheira, Benavente - Airport.


Vasco Carão > South: Garrocheira, Benavente - Airport - Dia
Actual
Vasco Carão > South: Garrocheira, Benavente - Airport - Actual

Benavente > North-East: AIrport, METAR: BENAV 180005Z 36004KT 17/14 Q1015.


Benavente > North-East: AIrport, METAR: BENAV 180005Z 36004KT 17/14 Q1015 - Dia
Actual
Benavente > North-East: AIrport, METAR: BENAV 180005Z 36004KT 17/14 Q1015 - Actual

Webcams provided by webcams.travel

Distâncias

Onde está Outeiro do Salto em relação a outros lugares?

Top 10 cidades em Evora e distância de Outeiro do Salto.

Cidade#Populaçãokmmilhas
Évora1458511811
Montemor-o-Novo2128544226
Vendas Novas3112486037
Estremoz493495534
Reguengos de Monsaraz572172918
Redondo658453924
Vila Viçosa754845635
Borba845865635
Adaval9-3220
Agua d' Alte10-4226

Top 10 cidades em Portugal e distância de Outeiro do Salto.

Cidade # Populaçãokmmilhas
Lisbon151779811672
Porto2249630312194
Amadora317885612779
Braga4121393352219
Setúbal51171099257
Coimbra6106580206128
Queluz710339812779
Funchal8980411040646
Vila Nova de Gaia970810311193
Loures106623012477